createdAt,value
2022-09-12T00:01:27.966Z,17.92
2022-09-12T00:03:58.168Z,18.33
2022-09-12T00:06:30.701Z,18.85
2022-09-12T00:09:01.816Z,18.00
2022-09-12T00:11:28.873Z,19.35
2022-09-12T00:13:58.288Z,16.92
2022-09-12T00:16:27.364Z,18.02
2022-09-12T00:18:54.881Z,17.88
2022-09-12T00:21:22.913Z,17.25
2022-09-12T00:23:50.671Z,17.05
2022-09-12T00:26:19.001Z,16.80
2022-09-12T00:28:46.974Z,15.82
2022-09-12T00:31:16.442Z,17.08
2022-09-12T00:33:43.704Z,15.93
2022-09-12T00:36:17.088Z,14.85
2022-09-12T00:38:45.065Z,14.90
2022-09-12T00:41:20.400Z,14.30
2022-09-12T00:44:20.694Z,14.52
2022-09-12T00:46:50.732Z,14.00
2022-09-12T00:49:27.225Z,14.63
2022-09-12T00:52:13.682Z,14.05
2022-09-12T00:55:10.817Z,15.15
2022-09-12T00:57:53.056Z,15.73
2022-09-12T01:00:22.869Z,15.18
2022-09-12T01:02:54.897Z,16.65
2022-09-12T01:05:23.781Z,17.83
2022-09-12T01:07:52.368Z,15.70
2022-09-12T01:10:20.643Z,16.25
2022-09-12T01:12:48.499Z,14.10
2022-09-12T01:15:15.559Z,14.82
2022-09-12T01:17:59.170Z,13.57
2022-09-12T01:20:31.689Z,13.07
2022-09-12T01:23:26.194Z,12.32
2022-09-12T01:26:14.902Z,11.02
2022-09-12T01:29:19.916Z,10.38
2022-09-12T01:31:57.761Z,9.90
2022-09-12T01:34:28.173Z,9.57
2022-09-12T01:37:16.623Z,9.88
2022-09-12T01:40:16.643Z,9.95
2022-09-12T01:43:04.240Z,8.38
2022-09-12T01:45:40.299Z,8.27
2022-09-12T01:48:31.205Z,8.00
2022-09-12T01:51:21.493Z,7.72
2022-09-12T01:53:57.668Z,7.82
2022-09-12T01:56:30.934Z,6.75
2022-09-12T01:59:08.057Z,5.88
2022-09-12T02:01:42.066Z,6.78
2022-09-12T02:04:22.867Z,5.80
2022-09-12T02:06:52.359Z,6.10
2022-09-12T02:09:23.870Z,6.07
2022-09-12T02:11:55.478Z,6.40
2022-09-12T02:14:25.635Z,6.30
2022-09-12T02:17:02.359Z,6.50
2022-09-12T02:19:36.618Z,5.55
2022-09-12T02:22:06.487Z,5.88
2022-09-12T02:24:39.558Z,5.55
2022-09-12T02:27:17.079Z,5.72
2022-09-12T02:29:44.975Z,5.70
2022-09-12T02:32:32.680Z,4.93
2022-09-12T02:35:03.337Z,5.57
2022-09-12T02:37:37.589Z,5.63
2022-09-12T02:40:07.018Z,5.72
2022-09-12T02:42:34.023Z,5.90
2022-09-12T02:45:01.128Z,4.85
2022-09-12T02:47:37.953Z,5.13
2022-09-12T02:50:05.959Z,5.45
2022-09-12T02:52:32.970Z,4.97
2022-09-12T02:55:00.084Z,4.70
2022-09-12T02:57:27.265Z,5.03
2022-09-12T02:59:57.698Z,5.13
2022-09-12T03:02:52.345Z,4.90
2022-09-12T03:05:34.357Z,4.18
2022-09-12T03:08:54.987Z,4.50
2022-09-12T03:11:58.802Z,4.20
2022-09-12T03:15:08.672Z,4.45
2022-09-12T03:18:19.189Z,4.32
2022-09-12T03:21:08.351Z,4.22
2022-09-12T03:23:55.859Z,3.83
2022-09-12T03:26:35.459Z,3.42
2022-09-12T03:29:05.012Z,3.50
2022-09-12T03:31:31.894Z,3.38
2022-09-12T03:34:00.567Z,3.17
2022-09-12T03:36:29.521Z,2.65
2022-09-12T03:38:56.326Z,1.90
2022-09-12T03:41:23.278Z,1.35
2022-09-12T03:43:50.044Z,1.30
2022-09-12T03:46:16.842Z,1.00
2022-09-12T03:48:43.666Z,0.90
2022-09-12T03:51:11.138Z,0.80
2022-09-12T03:53:37.899Z,0.70
2022-09-12T03:56:09.979Z,0.63
2022-09-12T03:58:37.552Z,0.60
2022-09-12T04:01:12.457Z,0.50
2022-09-12T04:03:48.736Z,1.17
2022-09-12T04:06:17.797Z,0.65
2022-09-12T04:08:48.015Z,0.63
2022-09-12T04:11:16.066Z,0.60
2022-09-12T04:13:45.173Z,0.50
2022-09-12T04:16:13.946Z,0.60
2022-09-12T04:18:41.095Z,0.50
2022-09-12T04:21:11.488Z,0.52
2022-09-12T04:23:38.597Z,0.50
2022-09-12T04:26:08.952Z,0.82
2022-09-12T04:28:37.655Z,0.60
2022-09-12T04:31:07.571Z,0.80
2022-09-12T04:33:35.668Z,0.60
2022-09-12T04:36:10.740Z,0.85
2022-09-12T04:38:38.412Z,0.75
2022-09-12T04:41:19.596Z,0.80
2022-09-12T04:43:46.963Z,0.80
2022-09-12T04:46:16.116Z,1.00
2022-09-12T04:48:43.695Z,1.15
2022-09-12T04:51:22.508Z,0.95
2022-09-12T04:53:52.266Z,0.88
2022-09-12T04:56:20.183Z,0.90
2022-09-12T04:58:47.987Z,1.25
2022-09-12T05:01:17.497Z,1.10
2022-09-12T05:03:45.396Z,0.80
2022-09-12T05:06:20.668Z,1.17
2022-09-12T05:08:47.888Z,2.78
2022-09-12T05:11:25.567Z,1.30
2022-09-12T05:13:57.202Z,0.95
2022-09-12T05:16:25.544Z,1.30
2022-09-12T05:18:52.624Z,1.10
2022-09-12T05:21:23.253Z,1.65
2022-09-12T05:23:54.921Z,1.35
2022-09-12T05:26:22.943Z,1.20
2022-09-12T05:28:51.209Z,1.15
2022-09-12T05:31:26.808Z,1.13
2022-09-12T05:33:55.531Z,2.28
2022-09-12T05:36:26.624Z,2.25
2022-09-12T05:38:54.170Z,2.53
2022-09-12T05:41:26.783Z,1.40
2022-09-12T05:43:59.065Z,1.33
2022-09-12T06:18:15.182Z,1.08
2022-09-12T06:46:16.474Z,1.00
2022-09-12T09:19:15.526Z,1.77
2022-09-12T11:05:23.816Z,1.70
2022-09-12T11:08:09.985Z,1.90
2022-09-12T11:13:40.681Z,2.40
2022-09-12T11:16:23.371Z,1.95
2022-09-12T11:19:20.648Z,2.08
2022-09-12T11:21:59.153Z,2.30
2022-09-12T11:24:32.701Z,2.47
2022-09-12T11:27:17.796Z,2.00
2022-09-12T11:29:52.561Z,1.98
2022-09-12T11:32:31.676Z,1.92
2022-09-12T11:35:27.893Z,1.80
2022-09-12T11:38:03.850Z,2.03
2022-09-12T11:40:42.393Z,2.30
2022-09-12T11:43:40.660Z,1.75
2022-09-12T11:46:36.236Z,2.17
2022-09-12T11:49:31.379Z,3.60
2022-09-12T11:52:07.800Z,3.20
2022-09-12T11:54:53.338Z,3.60
2022-09-12T11:57:31.191Z,2.92
2022-09-12T12:00:15.359Z,2.70
2022-09-12T12:03:06.802Z,2.63
2022-09-12T12:05:52.058Z,2.50
2022-09-12T12:08:21.265Z,2.90
2022-09-12T12:10:53.959Z,2.78
2022-09-12T12:13:39.325Z,2.33
2022-09-12T12:16:08.441Z,3.23
2022-09-12T12:18:39.123Z,3.38
2022-09-12T12:21:35.409Z,2.55
2022-09-12T12:24:08.352Z,2.30
2022-09-12T12:26:40.893Z,1.98
2022-09-12T12:29:39.261Z,2.72
2022-09-12T12:32:09.744Z,3.15
2022-09-12T12:34:44.475Z,3.13
2022-09-12T12:37:20.265Z,3.05
2022-09-12T12:42:36.111Z,2.90
2022-09-12T12:45:08.818Z,2.90
2022-09-12T12:47:38.402Z,2.90
2022-09-12T12:50:12.301Z,3.00
2022-09-12T12:52:56.189Z,3.45
2022-09-12T12:55:37.700Z,3.20
2022-09-12T12:58:07.766Z,3.60
2022-09-12T13:00:40.356Z,2.88
2022-09-12T13:03:07.122Z,3.17
2022-09-12T13:05:59.544Z,2.97
2022-09-12T13:08:34.584Z,2.92
2022-09-12T13:11:35.213Z,3.20
2022-09-12T13:14:09.452Z,2.70
2022-09-12T13:16:38.702Z,3.10
2022-09-12T13:19:18.205Z,3.40
2022-09-12T13:22:02.414Z,3.05
2022-09-12T13:24:29.437Z,3.58
2022-09-12T13:26:57.810Z,3.53
2022-09-12T13:29:26.753Z,3.35
2022-09-12T13:31:57.136Z,4.00
2022-09-12T13:34:41.700Z,11.07
2022-09-12T13:37:14.187Z,8.05
2022-09-12T13:40:16.324Z,5.20
2022-09-12T13:42:52.092Z,4.05
2022-09-12T13:48:04.817Z,3.28
2022-09-12T13:50:39.284Z,3.25
2022-09-12T13:53:12.563Z,4.00
2022-09-12T13:55:42.623Z,3.70
2022-09-12T13:58:33.594Z,3.67
2022-09-12T14:01:12.334Z,3.60
2022-09-12T14:04:08.060Z,4.13
2022-09-12T14:06:50.055Z,3.53
2022-09-12T14:09:39.590Z,4.10
2022-09-12T14:12:31.151Z,3.72
2022-09-12T14:14:58.067Z,4.13
2022-09-12T14:17:31.673Z,4.35
2022-09-12T14:20:07.113Z,3.97
2022-09-12T14:22:35.845Z,5.03
2022-09-12T14:25:02.945Z,4.50
2022-09-12T14:27:45.725Z,3.33
2022-09-12T14:30:30.621Z,3.42
2022-09-12T14:33:06.469Z,3.20
2022-09-12T14:38:08.157Z,3.22
2022-09-12T14:40:42.849Z,3.70
2022-09-12T14:43:25.151Z,3.97
2022-09-12T14:46:01.799Z,4.10
2022-09-12T14:48:32.144Z,4.50
2022-09-12T14:50:59.352Z,5.30
2022-09-12T14:53:36.093Z,5.75
2022-09-12T14:56:10.262Z,4.90
2022-09-12T14:58:38.026Z,6.35
2022-09-12T15:01:08.235Z,5.00
2022-09-12T15:03:38.514Z,5.90
2022-09-12T15:06:08.069Z,4.97
2022-09-12T15:08:34.943Z,5.35
2022-09-12T15:11:01.827Z,5.22
2022-09-12T15:13:30.714Z,5.55
2022-09-12T15:15:59.875Z,4.93
2022-09-12T15:18:29.234Z,5.70
2022-09-12T15:21:01.751Z,5.40
2022-09-12T15:23:35.403Z,5.50
2022-09-12T15:26:03.133Z,6.05
2022-09-12T15:28:31.743Z,6.03
2022-09-12T15:31:04.754Z,5.85
2022-09-12T15:33:31.634Z,5.90
2022-09-12T15:35:58.431Z,5.93
2022-09-12T15:38:26.704Z,6.10
2022-09-12T15:40:54.675Z,5.40
2022-09-12T15:43:26.251Z,5.63
2022-09-12T15:45:53.317Z,5.72
2022-09-12T15:48:21.097Z,5.57
2022-09-12T15:50:48.562Z,5.60
2022-09-12T15:53:16.845Z,5.40
2022-09-12T15:55:43.731Z,5.35
2022-09-12T15:58:10.866Z,5.80
2022-09-12T16:00:37.669Z,5.43
2022-09-12T16:03:04.944Z,5.47
2022-09-12T16:05:32.330Z,5.93
2022-09-12T16:07:59.191Z,5.50
2022-09-12T16:10:29.508Z,6.43
2022-09-12T16:12:56.807Z,8.80
2022-09-12T16:15:25.312Z,6.35
2022-09-12T16:17:52.313Z,7.30
2022-09-12T16:20:19.747Z,6.70
2022-09-12T16:22:46.832Z,6.82
2022-09-12T16:25:13.817Z,7.22
2022-09-12T16:27:41.134Z,9.10
2022-09-12T16:30:08.990Z,6.75
2022-09-12T16:32:36.381Z,7.50
2022-09-12T16:35:03.382Z,6.68
2022-09-12T16:37:32.092Z,8.52
2022-09-12T16:39:58.890Z,13.85
2022-09-12T16:42:25.868Z,12.85
2022-09-12T16:44:52.669Z,11.48
2022-09-12T16:47:19.839Z,8.27
2022-09-12T16:49:46.648Z,23.23
2022-09-12T16:52:16.487Z,30.95
2022-09-12T16:54:44.416Z,14.75
2022-09-12T16:57:11.857Z,12.43
2022-09-12T16:59:38.666Z,9.55
2022-09-12T17:02:06.181Z,11.38
2022-09-12T17:04:33.057Z,9.60
2022-09-12T17:06:59.833Z,9.45
2022-09-12T17:09:28.163Z,9.25
2022-09-12T17:11:55.437Z,8.35
2022-09-12T17:14:22.335Z,9.40
2022-09-12T17:16:51.909Z,8.32
2022-09-12T17:19:29.894Z,7.25
2022-09-12T17:21:57.665Z,7.63
2022-09-12T17:24:25.019Z,7.38
2022-09-12T17:26:52.527Z,9.60
2022-09-12T17:29:19.611Z,8.27
2022-09-12T17:31:46.654Z,8.40
2022-09-12T17:34:17.735Z,8.57
2022-09-12T17:36:45.483Z,7.60
2022-09-12T17:39:13.716Z,8.50
2022-09-12T17:41:42.925Z,6.85
2022-09-12T17:44:13.831Z,5.78
2022-09-12T17:46:41.297Z,6.75
2022-09-12T17:49:12.519Z,7.78
2022-09-12T17:51:40.468Z,8.40
2022-09-12T17:54:16.237Z,6.13
2022-09-12T17:59:15.905Z,6.40
2022-09-12T18:02:01.277Z,6.90
2022-09-12T18:04:28.285Z,6.50
2022-09-12T18:06:55.427Z,6.35
2022-09-12T18:09:25.117Z,5.80
2022-09-12T18:11:53.186Z,8.15
2022-09-12T18:14:20.677Z,7.32
2022-09-12T18:16:47.839Z,6.90
2022-09-12T18:19:15.161Z,7.20
2022-09-12T18:21:42.151Z,7.30
2022-09-12T18:24:10.102Z,6.60
2022-09-12T18:26:37.269Z,6.43
2022-09-12T18:29:04.271Z,5.68
2022-09-12T18:31:31.284Z,5.90
2022-09-12T18:34:02.701Z,6.68
2022-09-12T18:36:30.552Z,6.63
2022-09-12T18:38:58.640Z,6.05
2022-09-12T18:41:26.606Z,5.55
2022-09-12T18:43:55.562Z,5.75
2022-09-12T18:46:22.776Z,6.10
2022-09-12T18:48:49.968Z,6.47
2022-09-12T18:51:20.020Z,6.00
2022-09-12T18:53:56.361Z,6.03
2022-09-12T18:56:25.294Z,5.63
2022-09-12T18:58:56.949Z,5.25
2022-09-12T19:01:29.213Z,5.60
2022-09-12T19:03:56.542Z,5.50
2022-09-12T19:06:26.148Z,6.47
2022-09-12T19:08:54.278Z,6.28
2022-09-12T19:11:21.577Z,6.15
2022-09-12T19:13:50.879Z,6.55
2022-09-12T19:16:20.461Z,6.55
2022-09-12T19:18:49.722Z,7.05
2022-09-12T19:21:24.863Z,6.85
2022-09-12T19:23:53.919Z,7.25
2022-09-12T19:26:22.009Z,7.28
2022-09-12T19:28:49.488Z,6.80
2022-09-12T19:31:19.082Z,7.75
2022-09-12T19:33:46.565Z,6.63
2022-09-12T19:36:33.980Z,6.90
2022-09-12T19:39:04.327Z,7.25
2022-09-12T19:41:31.330Z,6.88
2022-09-12T19:43:58.577Z,6.70
2022-09-12T19:46:26.790Z,6.82
2022-09-12T19:48:54.269Z,6.45
2022-09-12T19:51:24.065Z,6.75
2022-09-12T19:53:51.208Z,6.07
2022-09-12T19:56:18.103Z,6.18
2022-09-12T19:58:49.872Z,5.90
2022-09-12T20:01:25.133Z,6.40
2022-09-12T20:03:54.821Z,6.75
2022-09-12T20:06:22.494Z,5.93
2022-09-12T20:08:50.057Z,5.80
2022-09-12T20:11:19.516Z,5.32
2022-09-12T20:13:46.749Z,5.07
2022-09-12T20:16:25.323Z,5.55
2022-09-12T20:19:01.307Z,5.63
2022-09-12T20:24:15.979Z,5.40
2022-09-12T20:26:43.340Z,5.20
2022-09-12T20:29:10.789Z,5.72
2022-09-12T20:31:39.008Z,5.28
2022-09-12T20:34:06.240Z,5.22
2022-09-12T20:36:33.097Z,6.53
2022-09-12T20:39:01.335Z,5.20
2022-09-12T20:41:31.677Z,4.70
2022-09-12T20:43:58.788Z,4.90
2022-09-12T20:46:27.479Z,5.45
2022-09-12T20:48:54.606Z,4.15
2022-09-12T20:51:22.430Z,4.90
2022-09-12T20:53:53.761Z,4.82
2022-09-12T20:56:21.264Z,4.93
2022-09-12T20:58:48.051Z,4.57
2022-09-12T21:01:15.971Z,4.28
2022-09-12T21:03:44.196Z,4.25
2022-09-12T21:06:12.916Z,4.03
2022-09-12T21:08:39.687Z,5.18
2022-09-12T21:11:07.225Z,4.20
2022-09-12T21:13:34.286Z,4.60
2022-09-12T21:16:22.399Z,4.20
2022-09-12T21:18:59.513Z,4.35
2022-09-12T21:21:26.977Z,3.90
2022-09-12T21:23:58.355Z,4.00
2022-09-12T21:26:25.155Z,4.63
2022-09-12T21:28:51.941Z,4.50
2022-09-12T21:31:18.786Z,4.13
2022-09-12T21:33:45.830Z,4.45
2022-09-12T21:36:12.837Z,5.03
2022-09-12T21:38:39.614Z,4.22
2022-09-12T21:41:11.248Z,5.00
2022-09-12T21:43:38.527Z,4.25
2022-09-12T21:46:06.609Z,4.30
2022-09-12T21:48:33.850Z,5.45
2022-09-12T21:51:00.648Z,4.88
2022-09-12T21:53:27.622Z,5.57
2022-09-12T21:55:54.361Z,4.93
2022-09-12T21:58:21.218Z,4.75
2022-09-12T22:00:48.315Z,4.70
2022-09-12T22:03:16.712Z,4.80
2022-09-12T22:05:43.809Z,4.50
2022-09-12T22:08:11.392Z,5.43
2022-09-12T22:10:38.631Z,4.50
2022-09-12T22:13:05.783Z,4.50
2022-09-12T22:15:41.057Z,4.50
2022-09-12T22:18:08.255Z,4.90
2022-09-12T22:20:35.006Z,4.18
2022-09-12T22:23:24.596Z,4.28
2022-09-12T22:25:54.443Z,4.75
2022-09-12T22:28:21.372Z,4.88
2022-09-12T22:30:51.448Z,4.65
2022-09-12T22:33:18.187Z,4.47
2022-09-12T22:35:44.964Z,4.22
2022-09-12T22:38:11.687Z,4.88
2022-09-12T22:40:38.501Z,4.60
2022-09-12T22:43:05.727Z,4.35
2022-09-12T22:45:32.591Z,4.75
2022-09-12T22:48:01.046Z,4.07
2022-09-12T22:50:28.648Z,4.65
2022-09-12T22:52:55.787Z,3.70
2022-09-12T22:55:22.546Z,4.60
2022-09-12T22:57:49.343Z,5.00
2022-09-12T23:00:16.257Z,4.65
2022-09-12T23:02:43.463Z,5.68
2022-09-12T23:05:10.294Z,5.20
2022-09-12T23:07:37.058Z,4.60
2022-09-12T23:10:04.082Z,4.60
2022-09-12T23:12:32.114Z,5.07
2022-09-12T23:14:58.890Z,4.80
2022-09-12T23:17:25.663Z,4.10
2022-09-12T23:19:52.622Z,4.32
2022-09-12T23:22:19.344Z,4.97
2022-09-12T23:24:47.341Z,4.88
2022-09-12T23:27:14.134Z,4.97
2022-09-12T23:29:40.954Z,5.70
2022-09-12T23:32:07.790Z,8.25
2022-09-12T23:34:34.685Z,10.70
2022-09-12T23:37:01.422Z,11.60
2022-09-12T23:39:28.199Z,13.07
2022-09-12T23:41:55.633Z,11.73
2022-09-12T23:44:22.394Z,12.27
2022-09-12T23:46:49.124Z,12.80
2022-09-12T23:49:15.900Z,12.50
2022-09-12T23:51:42.656Z,12.52
2022-09-12T23:54:09.398Z,11.48
2022-09-12T23:56:36.152Z,12.32
2022-09-12T23:59:02.904Z,11.55
